sensor_id;sensor_type;location;lat;lon;timestamp;P1;durP1;ratioP1;P2;durP2;ratioP2
55692;SDS011;41590;53.366;5.212;2023-02-01T00:00:05;38.10;;;6.72;;
55692;SDS011;41590;53.366;5.212;2023-02-01T00:02:37;50.22;;;7.32;;
55692;SDS011;41590;53.366;5.212;2023-02-01T00:05:09;40.67;;;8.18;;
55692;SDS011;41590;53.366;5.212;2023-02-01T00:07:40;35.90;;;6.47;;
55692;SDS011;41590;53.366;5.212;2023-02-01T00:10:07;42.53;;;6.47;;
55692;SDS011;41590;53.366;5.212;2023-02-01T00:12:35;53.45;;;8.60;;
55692;SDS011;41590;53.366;5.212;2023-02-01T00:15:01;39.85;;;6.57;;
55692;SDS011;41590;53.366;5.212;2023-02-01T00:17:36;42.25;;;7.80;;
55692;SDS011;41590;53.366;5.212;2023-02-01T00:22:33;42.22;;;7.15;;
55692;SDS011;41590;53.366;5.212;2023-02-01T00:25:14;48.17;;;6.75;;
55692;SDS011;41590;53.366;5.212;2023-02-01T00:27:40;39.28;;;5.85;;
55692;SDS011;41590;53.366;5.212;2023-02-01T00:30:06;49.33;;;7.43;;
55692;SDS011;41590;53.366;5.212;2023-02-01T00:32:40;51.60;;;8.07;;
55692;SDS011;41590;53.366;5.212;2023-02-01T00:35:08;44.05;;;6.13;;
55692;SDS011;41590;53.366;5.212;2023-02-01T00:37:42;40.53;;;7.68;;
55692;SDS011;41590;53.366;5.212;2023-02-01T00:40:14;37.90;;;6.80;;
55692;SDS011;41590;53.366;5.212;2023-02-01T00:42:42;43.13;;;6.90;;
55692;SDS011;41590;53.366;5.212;2023-02-01T00:45:21;44.75;;;6.90;;
55692;SDS011;41590;53.366;5.212;2023-02-01T00:47:49;45.35;;;6.75;;
55692;SDS011;41590;53.366;5.212;2023-02-01T00:50:16;45.00;;;6.63;;
55692;SDS011;41590;53.366;5.212;2023-02-01T00:52:42;41.53;;;6.22;;
55692;SDS011;41590;53.366;5.212;2023-02-01T00:55:08;47.40;;;8.02;;
55692;SDS011;41590;53.366;5.212;2023-02-01T00:57:35;46.00;;;7.15;;
55692;SDS011;41590;53.366;5.212;2023-02-01T01:00:04;35.78;;;6.38;;
55692;SDS011;41590;53.366;5.212;2023-02-01T01:02:30;44.15;;;7.10;;
55692;SDS011;41590;53.366;5.212;2023-02-01T01:04:58;50.17;;;7.72;;
55692;SDS011;41590;53.366;5.212;2023-02-01T01:07:24;41.30;;;7.13;;
55692;SDS011;41590;53.366;5.212;2023-02-01T01:09:51;42.58;;;7.03;;
55692;SDS011;41590;53.366;5.212;2023-02-01T01:12:26;45.45;;;7.05;;
55692;SDS011;41590;53.366;5.212;2023-02-01T01:14:55;45.47;;;7.85;;
55692;SDS011;41590;53.366;5.212;2023-02-01T01:17:23;38.13;;;5.90;;
55692;SDS011;41590;53.366;5.212;2023-02-01T01:19:53;46.45;;;8.02;;
55692;SDS011;41590;53.366;5.212;2023-02-01T01:22:19;47.70;;;7.95;;
55692;SDS011;41590;53.366;5.212;2023-02-01T01:30:25;58.03;;;7.13;;
55692;SDS011;41590;53.366;5.212;2023-02-01T01:32:53;49.90;;;7.30;;
55692;SDS011;41590;53.366;5.212;2023-02-01T01:35:21;52.47;;;8.13;;
55692;SDS011;41590;53.366;5.212;2023-02-01T01:37:48;43.53;;;7.03;;
55692;SDS011;41590;53.366;5.212;2023-02-01T01:40:14;42.63;;;5.82;;
55692;SDS011;41590;53.366;5.212;2023-02-01T01:42:43;47.85;;;6.60;;
55692;SDS011;41590;53.366;5.212;2023-02-01T01:47:40;50.80;;;6.55;;
55692;SDS011;41590;53.366;5.212;2023-02-01T01:50:12;47.88;;;7.13;;
55692;SDS011;41590;53.366;5.212;2023-02-01T01:52:39;52.08;;;7.72;;
55692;SDS011;41590;53.366;5.212;2023-02-01T01:55:24;43.38;;;7.47;;
55692;SDS011;41590;53.366;5.212;2023-02-01T01:57:56;53.72;;;9.60;;
55692;SDS011;41590;53.366;5.212;2023-02-01T02:00:23;36.90;;;6.30;;
55692;SDS011;41590;53.366;5.212;2023-02-01T02:03:11;43.20;;;5.82;;
55692;SDS011;41590;53.366;5.212;2023-02-01T02:05:39;51.10;;;7.45;;
55692;SDS011;41590;53.366;5.212;2023-02-01T02:08:08;51.50;;;8.30;;
55692;SDS011;41590;53.366;5.212;2023-02-01T02:10:35;44.25;;;7.50;;
55692;SDS011;41590;53.366;5.212;2023-02-01T02:13:21;35.35;;;5.32;;
55692;SDS011;41590;53.366;5.212;2023-02-01T02:16:04;42.72;;;6.78;;
55692;SDS011;41590;53.366;5.212;2023-02-01T02:18:37;46.90;;;6.65;;
55692;SDS011;41590;53.366;5.212;2023-02-01T02:21:10;48.65;;;6.40;;
55692;SDS011;41590;53.366;5.212;2023-02-01T02:34:38;45.70;;;7.22;;
55692;SDS011;41590;53.366;5.212;2023-02-01T02:42:47;45.85;;;7.55;;
55692;SDS011;41590;53.366;5.212;2023-02-01T02:48:36;36.28;;;5.82;;
55692;SDS011;41590;53.366;5.212;2023-02-01T02:54:15;40.65;;;6.72;;
55692;SDS011;41590;53.366;5.212;2023-02-01T02:57:04;34.15;;;5.80;;
55692;SDS011;41590;53.366;5.212;2023-02-01T03:05:56;43.47;;;7.20;;
55692;SDS011;41590;53.366;5.212;2023-02-01T03:08:24;49.85;;;8.73;;
55692;SDS011;41590;53.366;5.212;2023-02-01T03:10:53;54.45;;;8.45;;
55692;SDS011;41590;53.366;5.212;2023-02-01T03:27:21;40.42;;;6.68;;
55692;SDS011;41590;53.366;5.212;2023-02-01T03:32:27;48.75;;;7.60;;
55692;SDS011;41590;53.366;5.212;2023-02-01T03:38:01;39.88;;;7.47;;
55692;SDS011;41590;53.366;5.212;2023-02-01T03:40:34;36.08;;;6.35;;
55692;SDS011;41590;53.366;5.212;2023-02-01T03:43:01;55.85;;;7.50;;
55692;SDS011;41590;53.366;5.212;2023-02-01T03:45:46;25.48;;;4.70;;
55692;SDS011;41590;53.366;5.212;2023-02-01T03:51:16;53.80;;;8.43;;
55692;SDS011;41590;53.366;5.212;2023-02-01T03:53:53;37.65;;;6.65;;
55692;SDS011;41590;53.366;5.212;2023-02-01T03:56:21;49.35;;;7.82;;
55692;SDS011;41590;53.366;5.212;2023-02-01T03:58:50;40.15;;;6.78;;
55692;SDS011;41590;53.366;5.212;2023-02-01T04:01:37;47.55;;;6.90;;
55692;SDS011;41590;53.366;5.212;2023-02-01T04:04:04;34.88;;;6.40;;
55692;SDS011;41590;53.366;5.212;2023-02-01T04:06:32;47.50;;;7.28;;
55692;SDS011;41590;53.366;5.212;2023-02-01T04:11:48;39.67;;;6.70;;
55692;SDS011;41590;53.366;5.212;2023-02-01T04:19:43;41.72;;;6.65;;
55692;SDS011;41590;53.366;5.212;2023-02-01T04:22:10;51.47;;;7.80;;
55692;SDS011;41590;53.366;5.212;2023-02-01T04:24:45;41.53;;;6.57;;
55692;SDS011;41590;53.366;5.212;2023-02-01T04:27:23;52.92;;;8.93;;
55692;SDS011;41590;53.366;5.212;2023-02-01T04:29:50;38.58;;;6.57;;
55692;SDS011;41590;53.366;5.212;2023-02-01T04:32:21;53.65;;;8.02;;
55692;SDS011;41590;53.366;5.212;2023-02-01T04:34:56;38.45;;;6.40;;
55692;SDS011;41590;53.366;5.212;2023-02-01T04:37:23;46.80;;;7.35;;
55692;SDS011;41590;53.366;5.212;2023-02-01T04:39:50;48.15;;;6.97;;
55692;SDS011;41590;53.366;5.212;2023-02-01T04:42:17;36.03;;;6.22;;
55692;SDS011;41590;53.366;5.212;2023-02-01T04:44:43;43.63;;;7.07;;
55692;SDS011;41590;53.366;5.212;2023-02-01T04:49:58;47.90;;;8.30;;
55692;SDS011;41590;53.366;5.212;2023-02-01T04:52:25;38.42;;;6.07;;
55692;SDS011;41590;53.366;5.212;2023-02-01T04:57:27;41.58;;;6.50;;
55692;SDS011;41590;53.366;5.212;2023-02-01T05:02:24;46.50;;;6.72;;
55692;SDS011;41590;53.366;5.212;2023-02-01T05:04:52;43.55;;;7.80;;
55692;SDS011;41590;53.366;5.212;2023-02-01T05:07:21;41.25;;;6.10;;
55692;SDS011;41590;53.366;5.212;2023-02-01T05:09:47;48.80;;;7.45;;
55692;SDS011;41590;53.366;5.212;2023-02-01T05:12:18;52.13;;;7.65;;
55692;SDS011;41590;53.366;5.212;2023-02-01T05:15:03;45.35;;;8.00;;
55692;SDS011;41590;53.366;5.212;2023-02-01T05:20:03;39.22;;;6.57;;
55692;SDS011;41590;53.366;5.212;2023-02-01T05:22:30;31.45;;;5.43;;
55692;SDS011;41590;53.366;5.212;2023-02-01T05:25:00;58.13;;;7.70;;
55692;SDS011;41590;53.366;5.212;2023-02-01T05:27:29;50.28;;;7.30;;
55692;SDS011;41590;53.366;5.212;2023-02-01T05:29:57;40.72;;;6.30;;
55692;SDS011;41590;53.366;5.212;2023-02-01T05:32:34;56.80;;;8.23;;
55692;SDS011;41590;53.366;5.212;2023-02-01T05:35:01;39.50;;;6.43;;
55692;SDS011;41590;53.366;5.212;2023-02-01T05:37:33;35.80;;;4.90;;
55692;SDS011;41590;53.366;5.212;2023-02-01T05:42:39;32.15;;;5.00;;
55692;SDS011;41590;53.366;5.212;2023-02-01T05:47:38;38.75;;;6.72;;
55692;SDS011;41590;53.366;5.212;2023-02-01T05:50:05;47.70;;;7.20;;
55692;SDS011;41590;53.366;5.212;2023-02-01T05:52:35;48.67;;;7.32;;
55692;SDS011;41590;53.366;5.212;2023-02-01T05:57:32;46.00;;;6.47;;
55692;SDS011;41590;53.366;5.212;2023-02-01T05:59:58;46.83;;;7.55;;
55692;SDS011;41590;53.366;5.212;2023-02-01T06:02:28;48.58;;;8.30;;
55692;SDS011;41590;53.366;5.212;2023-02-01T06:07:26;45.88;;;7.22;;
55692;SDS011;41590;53.366;5.212;2023-02-01T06:09:55;43.30;;;6.60;;
55692;SDS011;41590;53.366;5.212;2023-02-01T06:12:22;46.90;;;7.53;;
55692;SDS011;41590;53.366;5.212;2023-02-01T06:14:48;60.28;;;8.80;;
55692;SDS011;41590;53.366;5.212;2023-02-01T06:17:16;41.67;;;6.10;;
55692;SDS011;41590;53.366;5.212;2023-02-01T06:22:22;45.57;;;6.23;;
55692;SDS011;41590;53.366;5.212;2023-02-01T06:24:48;52.50;;;6.32;;
55692;SDS011;41590;53.366;5.212;2023-02-01T06:27:15;54.95;;;7.55;;
55692;SDS011;41590;53.366;5.212;2023-02-01T06:29:43;49.85;;;8.02;;
55692;SDS011;41590;53.366;5.212;2023-02-01T06:32:09;56.42;;;7.60;;
55692;SDS011;41590;53.366;5.212;2023-02-01T06:34:38;53.08;;;8.48;;
55692;SDS011;41590;53.366;5.212;2023-02-01T06:37:04;39.00;;;7.80;;
55692;SDS011;41590;53.366;5.212;2023-02-01T06:39:31;42.05;;;7.15;;
55692;SDS011;41590;53.366;5.212;2023-02-01T06:42:00;58.90;;;7.68;;
55692;SDS011;41590;53.366;5.212;2023-02-01T06:44:28;58.20;;;8.35;;
55692;SDS011;41590;53.366;5.212;2023-02-01T06:47:03;59.47;;;7.93;;
55692;SDS011;41590;53.366;5.212;2023-02-01T06:49:38;51.22;;;7.30;;
55692;SDS011;41590;53.366;5.212;2023-02-01T06:52:06;52.03;;;8.32;;
55692;SDS011;41590;53.366;5.212;2023-02-01T06:54:48;56.53;;;7.10;;
55692;SDS011;41590;53.366;5.212;2023-02-01T06:57:15;55.38;;;8.23;;
55692;SDS011;41590;53.366;5.212;2023-02-01T06:59:42;44.20;;;6.88;;
55692;SDS011;41590;53.366;5.212;2023-02-01T07:02:22;51.25;;;7.13;;
55692;SDS011;41590;53.366;5.212;2023-02-01T07:09:54;61.28;;;8.73;;
55692;SDS011;41590;53.366;5.212;2023-02-01T07:12:20;52.47;;;8.20;;
55692;SDS011;41590;53.366;5.212;2023-02-01T07:14:48;33.97;;;5.30;;
55692;SDS011;41590;53.366;5.212;2023-02-01T07:17:15;54.85;;;8.43;;
55692;SDS011;41590;53.366;5.212;2023-02-01T07:19:43;47.20;;;7.03;;
55692;SDS011;41590;53.366;5.212;2023-02-01T07:22:09;35.20;;;6.78;;
55692;SDS011;41590;53.366;5.212;2023-02-01T07:24:38;45.13;;;7.68;;
55692;SDS011;41590;53.366;5.212;2023-02-01T07:27:06;52.45;;;8.30;;
55692;SDS011;41590;53.366;5.212;2023-02-01T07:29:43;43.28;;;5.80;;
55692;SDS011;41590;53.366;5.212;2023-02-01T07:32:09;56.22;;;8.30;;
55692;SDS011;41590;53.366;5.212;2023-02-01T07:34:36;61.15;;;8.20;;
55692;SDS011;41590;53.366;5.212;2023-02-01T07:37:02;56.08;;;8.30;;
55692;SDS011;41590;53.366;5.212;2023-02-01T07:41:59;39.35;;;6.60;;
55692;SDS011;41590;53.366;5.212;2023-02-01T07:44:37;34.65;;;5.50;;
55692;SDS011;41590;53.366;5.212;2023-02-01T07:47:09;45.38;;;6.72;;
55692;SDS011;41590;53.366;5.212;2023-02-01T07:49:35;48.40;;;7.63;;
55692;SDS011;41590;53.366;5.212;2023-02-01T07:52:06;42.70;;;6.22;;
55692;SDS011;41590;53.366;5.212;2023-02-01T07:58:05;43.00;;;6.75;;
55692;SDS011;41590;53.366;5.212;2023-02-01T08:00:32;41.38;;;6.55;;
55692;SDS011;41590;53.366;5.212;2023-02-01T08:03:20;44.17;;;6.70;;
55692;SDS011;41590;53.366;5.212;2023-02-01T08:05:48;63.30;;;7.50;;
55692;SDS011;41590;53.366;5.212;2023-02-01T08:08:19;46.72;;;5.68;;
55692;SDS011;41590;53.366;5.212;2023-02-01T08:10:45;41.72;;;5.85;;
55692;SDS011;41590;53.366;5.212;2023-02-01T08:13:12;43.55;;;6.65;;
55692;SDS011;41590;53.366;5.212;2023-02-01T08:18:09;33.58;;;5.70;;
55692;SDS011;41590;53.366;5.212;2023-02-01T08:20:37;38.47;;;6.30;;
55692;SDS011;41590;53.366;5.212;2023-02-01T08:23:07;38.33;;;6.13;;
55692;SDS011;41590;53.366;5.212;2023-02-01T08:25:34;35.47;;;6.18;;
55692;SDS011;41590;53.366;5.212;2023-02-01T08:30:37;56.33;;;6.53;;
55692;SDS011;41590;53.366;5.212;2023-02-01T08:33:05;35.80;;;5.30;;
55692;SDS011;41590;53.366;5.212;2023-02-01T08:35:34;40.40;;;5.93;;
55692;SDS011;41590;53.366;5.212;2023-02-01T08:38:03;42.58;;;6.88;;
55692;SDS011;41590;53.366;5.212;2023-02-01T08:40:35;34.90;;;5.45;;
55692;SDS011;41590;53.366;5.212;2023-02-01T08:43:03;49.35;;;7.38;;
55692;SDS011;41590;53.366;5.212;2023-02-01T08:45:42;40.13;;;7.30;;
55692;SDS011;41590;53.366;5.212;2023-02-01T08:48:12;49.97;;;6.97;;
55692;SDS011;41590;53.366;5.212;2023-02-01T08:50:38;36.85;;;5.38;;
55692;SDS011;41590;53.366;5.212;2023-02-01T08:53:04;43.85;;;6.47;;
55692;SDS011;41590;53.366;5.212;2023-02-01T08:55:32;40.58;;;6.85;;
55692;SDS011;41590;53.366;5.212;2023-02-01T08:57:59;47.20;;;6.97;;
55692;SDS011;41590;53.366;5.212;2023-02-01T09:02:57;53.30;;;6.75;;
55692;SDS011;41590;53.366;5.212;2023-02-01T09:05:38;36.17;;;5.35;;
55692;SDS011;41590;53.366;5.212;2023-02-01T09:08:07;36.50;;;6.00;;
55692;SDS011;41590;53.366;5.212;2023-02-01T09:10:35;39.47;;;6.50;;
55692;SDS011;41590;53.366;5.212;2023-02-01T09:13:10;37.85;;;5.90;;
55692;SDS011;41590;53.366;5.212;2023-02-01T09:15:36;42.50;;;5.72;;
55692;SDS011;41590;53.366;5.212;2023-02-01T09:18:08;38.30;;;6.95;;
55692;SDS011;41590;53.366;5.212;2023-02-01T09:20:36;41.45;;;5.88;;
55692;SDS011;41590;53.366;5.212;2023-02-01T09:23:08;38.53;;;6.25;;
55692;SDS011;41590;53.366;5.212;2023-02-01T09:25:37;43.63;;;6.43;;
55692;SDS011;41590;53.366;5.212;2023-02-01T09:30:35;38.63;;;6.15;;
55692;SDS011;41590;53.366;5.212;2023-02-01T09:33:12;43.80;;;5.60;;
55692;SDS011;41590;53.366;5.212;2023-02-01T09:35:47;35.45;;;5.75;;
55692;SDS011;41590;53.366;5.212;2023-02-01T09:38:20;45.60;;;7.18;;
55692;SDS011;41590;53.366;5.212;2023-02-01T09:40:47;42.13;;;6.68;;
55692;SDS011;41590;53.366;5.212;2023-02-01T09:48:34;38.75;;;6.63;;
55692;SDS011;41590;53.366;5.212;2023-02-01T09:51:12;38.10;;;6.70;;
55692;SDS011;41590;53.366;5.212;2023-02-01T09:53:44;48.72;;;6.95;;
55692;SDS011;41590;53.366;5.212;2023-02-01T09:56:23;35.92;;;6.70;;
55692;SDS011;41590;53.366;5.212;2023-02-01T10:04:13;52.53;;;6.82;;
55692;SDS011;41590;53.366;5.212;2023-02-01T10:06:47;48.35;;;8.38;;
55692;SDS011;41590;53.366;5.212;2023-02-01T10:22:09;41.78;;;6.68;;
55692;SDS011;41590;53.366;5.212;2023-02-01T10:24:53;50.75;;;7.80;;
55692;SDS011;41590;53.366;5.212;2023-02-01T10:27:28;40.15;;;8.52;;
55692;SDS011;41590;53.366;5.212;2023-02-01T10:29:58;44.80;;;7.20;;
55692;SDS011;41590;53.366;5.212;2023-02-01T10:32:32;38.17;;;6.45;;
55692;SDS011;41590;53.366;5.212;2023-02-01T10:35:14;50.30;;;7.47;;
55692;SDS011;41590;53.366;5.212;2023-02-01T10:37:41;48.38;;;7.72;;
55692;SDS011;41590;53.366;5.212;2023-02-01T10:54:16;58.17;;;8.93;;
55692;SDS011;41590;53.366;5.212;2023-02-01T10:56:45;53.33;;;8.07;;
55692;SDS011;41590;53.366;5.212;2023-02-01T10:59:27;58.13;;;9.30;;
55692;SDS011;41590;53.366;5.212;2023-02-01T11:04:57;48.45;;;8.35;;
55692;SDS011;41590;53.366;5.212;2023-02-01T11:07:28;55.67;;;7.55;;
55692;SDS011;41590;53.366;5.212;2023-02-01T11:15:46;38.60;;;6.40;;
55692;SDS011;41590;53.366;5.212;2023-02-01T11:21:02;53.22;;;9.43;;
55692;SDS011;41590;53.366;5.212;2023-02-01T11:23:30;41.05;;;6.88;;
55692;SDS011;41590;53.366;5.212;2023-02-01T11:28:58;49.88;;;7.90;;
55692;SDS011;41590;53.366;5.212;2023-02-01T11:31:35;49.80;;;6.90;;
55692;SDS011;41590;53.366;5.212;2023-02-01T11:34:12;65.32;;;9.15;;
55692;SDS011;41590;53.366;5.212;2023-02-01T11:44:42;65.53;;;10.65;;
55692;SDS011;41590;53.366;5.212;2023-02-01T11:50:05;46.22;;;8.07;;
55692;SDS011;41590;53.366;5.212;2023-02-01T12:01:30;55.00;;;9.35;;
55692;SDS011;41590;53.366;5.212;2023-02-01T12:24:43;55.00;;;8.80;;
55692;SDS011;41590;53.366;5.212;2023-02-01T12:27:17;42.42;;;7.18;;
55692;SDS011;41590;53.366;5.212;2023-02-01T12:50:00;49.65;;;8.13;;
55692;SDS011;41590;53.366;5.212;2023-02-01T13:06:13;68.10;;;9.20;;
55692;SDS011;41590;53.366;5.212;2023-02-01T13:22:28;62.77;;;10.30;;
55692;SDS011;41590;53.366;5.212;2023-02-01T13:24:57;49.85;;;8.65;;
55692;SDS011;41590;53.366;5.212;2023-02-01T13:27:40;53.85;;;7.82;;
55692;SDS011;41590;53.366;5.212;2023-02-01T13:30:26;48.13;;;7.90;;
55692;SDS011;41590;53.366;5.212;2023-02-01T13:42:20;58.83;;;9.10;;
55692;SDS011;41590;53.366;5.212;2023-02-01T14:16:14;40.90;;;6.55;;
55692;SDS011;41590;53.366;5.212;2023-02-01T14:23:55;42.45;;;6.35;;
55692;SDS011;41590;53.366;5.212;2023-02-01T14:29:18;49.10;;;7.25;;
55692;SDS011;41590;53.366;5.212;2023-02-01T14:36:57;49.38;;;8.70;;
55692;SDS011;41590;53.366;5.212;2023-02-01T14:42:26;47.35;;;6.88;;
55692;SDS011;41590;53.366;5.212;2023-02-01T14:47:48;51.55;;;6.78;;
55692;SDS011;41590;53.366;5.212;2023-02-01T14:56:07;33.63;;;5.13;;
55692;SDS011;41590;53.366;5.212;2023-02-01T15:04:10;40.97;;;7.05;;
55692;SDS011;41590;53.366;5.212;2023-02-01T15:11:55;40.42;;;7.10;;
55692;SDS011;41590;53.366;5.212;2023-02-01T15:17:25;43.03;;;6.03;;
55692;SDS011;41590;53.366;5.212;2023-02-01T15:23:05;46.35;;;7.55;;
55692;SDS011;41590;53.366;5.212;2023-02-01T15:25:37;47.08;;;7.35;;
55692;SDS011;41590;53.366;5.212;2023-02-01T15:28:25;37.05;;;5.45;;
55692;SDS011;41590;53.366;5.212;2023-02-01T15:31:01;46.95;;;6.60;;
55692;SDS011;41590;53.366;5.212;2023-02-01T15:33:32;44.40;;;6.70;;
55692;SDS011;41590;53.366;5.212;2023-02-01T15:36:10;49.33;;;7.97;;
55692;SDS011;41590;53.366;5.212;2023-02-01T15:38:42;51.25;;;8.07;;
55692;SDS011;41590;53.366;5.212;2023-02-01T15:41:17;65.38;;;8.65;;
55692;SDS011;41590;53.366;5.212;2023-02-01T15:49:11;44.65;;;6.88;;
55692;SDS011;41590;53.366;5.212;2023-02-01T15:51:51;52.65;;;7.78;;
55692;SDS011;41590;53.366;5.212;2023-02-01T16:00:42;54.83;;;6.97;;
55692;SDS011;41590;53.366;5.212;2023-02-01T16:12:46;51.17;;;7.22;;
55692;SDS011;41590;53.366;5.212;2023-02-01T16:15:14;41.05;;;7.45;;
55692;SDS011;41590;53.366;5.212;2023-02-01T16:23:03;38.55;;;6.03;;
55692;SDS011;41590;53.366;5.212;2023-02-01T16:25:29;36.10;;;5.85;;
55692;SDS011;41590;53.366;5.212;2023-02-01T16:27:56;44.63;;;6.63;;
55692;SDS011;41590;53.366;5.212;2023-02-01T16:30:24;34.22;;;5.15;;
55692;SDS011;41590;53.366;5.212;2023-02-01T16:33:01;59.08;;;6.03;;
55692;SDS011;41590;53.366;5.212;2023-02-01T16:38:12;31.23;;;5.43;;
55692;SDS011;41590;53.366;5.212;2023-02-01T16:40:39;35.38;;;4.82;;
55692;SDS011;41590;53.366;5.212;2023-02-01T16:43:13;34.80;;;5.28;;
55692;SDS011;41590;53.366;5.212;2023-02-01T16:45:43;27.80;;;5.03;;
55692;SDS011;41590;53.366;5.212;2023-02-01T16:51:00;41.17;;;5.47;;
55692;SDS011;41590;53.366;5.212;2023-02-01T16:53:27;44.95;;;5.50;;
55692;SDS011;41590;53.366;5.212;2023-02-01T16:58:29;50.78;;;8.55;;
55692;SDS011;41590;53.366;5.212;2023-02-01T17:00:55;51.25;;;7.05;;
55692;SDS011;41590;53.366;5.212;2023-02-01T17:03:23;42.05;;;6.18;;
55692;SDS011;41590;53.366;5.212;2023-02-01T17:05:51;48.13;;;6.68;;
55692;SDS011;41590;53.366;5.212;2023-02-01T17:08:21;38.17;;;5.32;;
55692;SDS011;41590;53.366;5.212;2023-02-01T17:10:50;52.95;;;6.57;;
55692;SDS011;41590;53.366;5.212;2023-02-01T17:13:16;39.38;;;6.70;;
55692;SDS011;41590;53.366;5.212;2023-02-01T17:15:45;41.60;;;5.88;;
55692;SDS011;41590;53.366;5.212;2023-02-01T17:18:15;42.10;;;6.18;;
55692;SDS011;41590;53.366;5.212;2023-02-01T17:20:41;41.80;;;5.40;;
55692;SDS011;41590;53.366;5.212;2023-02-01T17:23:13;36.28;;;4.60;;
55692;SDS011;41590;53.366;5.212;2023-02-01T17:25:42;33.60;;;4.67;;
55692;SDS011;41590;53.366;5.212;2023-02-01T17:28:08;30.73;;;4.68;;
55692;SDS011;41590;53.366;5.212;2023-02-01T17:30:36;38.20;;;5.63;;
55692;SDS011;41590;53.366;5.212;2023-02-01T17:33:03;35.95;;;5.68;;
55692;SDS011;41590;53.366;5.212;2023-02-01T17:37:59;36.50;;;6.13;;
55692;SDS011;41590;53.366;5.212;2023-02-01T17:40:25;36.60;;;4.90;;
55692;SDS011;41590;53.366;5.212;2023-02-01T17:42:53;31.27;;;5.65;;
55692;SDS011;41590;53.366;5.212;2023-02-01T17:45:37;34.83;;;4.50;;
55692;SDS011;41590;53.366;5.212;2023-02-01T17:48:05;32.90;;;4.43;;
55692;SDS011;41590;53.366;5.212;2023-02-01T17:50:35;33.40;;;4.78;;
55692;SDS011;41590;53.366;5.212;2023-02-01T17:53:02;41.70;;;4.95;;
55692;SDS011;41590;53.366;5.212;2023-02-01T17:55:33;28.98;;;3.78;;
55692;SDS011;41590;53.366;5.212;2023-02-01T17:58:01;27.90;;;4.40;;
55692;SDS011;41590;53.366;5.212;2023-02-01T18:02:59;36.53;;;5.10;;
55692;SDS011;41590;53.366;5.212;2023-02-01T18:05:28;32.58;;;4.68;;
55692;SDS011;41590;53.366;5.212;2023-02-01T18:07:58;31.77;;;4.53;;
55692;SDS011;41590;53.366;5.212;2023-02-01T18:10:26;33.53;;;5.00;;
55692;SDS011;41590;53.366;5.212;2023-02-01T18:12:54;37.47;;;4.75;;
55692;SDS011;41590;53.366;5.212;2023-02-01T18:15:23;32.67;;;4.80;;
55692;SDS011;41590;53.366;5.212;2023-02-01T18:17:49;41.28;;;5.57;;
55692;SDS011;41590;53.366;5.212;2023-02-01T18:20:24;31.38;;;4.75;;
55692;SDS011;41590;53.366;5.212;2023-02-01T18:22:56;26.33;;;4.07;;
55692;SDS011;41590;53.366;5.212;2023-02-01T18:25:26;20.20;;;3.17;;
55692;SDS011;41590;53.366;5.212;2023-02-01T18:27:54;29.20;;;5.10;;
55692;SDS011;41590;53.366;5.212;2023-02-01T18:30:23;19.33;;;3.35;;
55692;SDS011;41590;53.366;5.212;2023-02-01T18:32:50;29.75;;;4.72;;
55692;SDS011;41590;53.366;5.212;2023-02-01T18:37:45;28.77;;;4.85;;
55692;SDS011;41590;53.366;5.212;2023-02-01T18:40:19;40.67;;;4.45;;
55692;SDS011;41590;53.366;5.212;2023-02-01T18:42:45;30.65;;;4.55;;
55692;SDS011;41590;53.366;5.212;2023-02-01T18:47:53;23.70;;;4.05;;
55692;SDS011;41590;53.366;5.212;2023-02-01T18:50:19;29.35;;;4.65;;
55692;SDS011;41590;53.366;5.212;2023-02-01T18:52:46;36.90;;;4.47;;
55692;SDS011;41590;53.366;5.212;2023-02-01T18:57:43;21.08;;;3.78;;
55692;SDS011;41590;53.366;5.212;2023-02-01T19:00:17;30.92;;;4.35;;
55692;SDS011;41590;53.366;5.212;2023-02-01T19:02:51;27.73;;;4.10;;
55692;SDS011;41590;53.366;5.212;2023-02-01T19:05:23;14.27;;;2.70;;
55692;SDS011;41590;53.366;5.212;2023-02-01T19:07:50;28.03;;;3.73;;
55692;SDS011;41590;53.366;5.212;2023-02-01T19:10:17;34.53;;;4.57;;
55692;SDS011;41590;53.366;5.212;2023-02-01T19:12:45;27.00;;;5.03;;
55692;SDS011;41590;53.366;5.212;2023-02-01T19:15:18;31.77;;;4.20;;
55692;SDS011;41590;53.366;5.212;2023-02-01T19:17:45;26.48;;;3.95;;
55692;SDS011;41590;53.366;5.212;2023-02-01T19:20:13;37.97;;;5.60;;
55692;SDS011;41590;53.366;5.212;2023-02-01T19:22:39;41.15;;;5.10;;
55692;SDS011;41590;53.366;5.212;2023-02-01T19:25:14;35.08;;;4.82;;
55692;SDS011;41590;53.366;5.212;2023-02-01T19:30:13;45.67;;;5.55;;
55692;SDS011;41590;53.366;5.212;2023-02-01T19:32:39;31.77;;;4.50;;
55692;SDS011;41590;53.366;5.212;2023-02-01T19:35:06;38.80;;;5.95;;
55692;SDS011;41590;53.366;5.212;2023-02-01T19:37:33;39.45;;;4.78;;
55692;SDS011;41590;53.366;5.212;2023-02-01T19:39:59;48.75;;;6.05;;
55692;SDS011;41590;53.366;5.212;2023-02-01T19:42:27;26.70;;;3.90;;
55692;SDS011;41590;53.366;5.212;2023-02-01T19:44:54;33.75;;;4.75;;
55692;SDS011;41590;53.366;5.212;2023-02-01T19:47:27;40.40;;;4.30;;
55692;SDS011;41590;53.366;5.212;2023-02-01T19:49:53;28.42;;;4.22;;
55692;SDS011;41590;53.366;5.212;2023-02-01T19:52:20;39.63;;;5.57;;
55692;SDS011;41590;53.366;5.212;2023-02-01T19:54:46;33.60;;;4.65;;
55692;SDS011;41590;53.366;5.212;2023-02-01T19:59:44;28.70;;;4.95;;
55692;SDS011;41590;53.366;5.212;2023-02-01T20:02:12;27.63;;;4.07;;
55692;SDS011;41590;53.366;5.212;2023-02-01T20:04:44;37.00;;;6.13;;
55692;SDS011;41590;53.366;5.212;2023-02-01T20:07:18;37.13;;;4.80;;
55692;SDS011;41590;53.366;5.212;2023-02-01T20:09:45;28.83;;;4.15;;
55692;SDS011;41590;53.366;5.212;2023-02-01T20:12:12;34.40;;;5.00;;
55692;SDS011;41590;53.366;5.212;2023-02-01T20:14:41;28.48;;;4.65;;
55692;SDS011;41590;53.366;5.212;2023-02-01T20:19:40;25.48;;;3.88;;
55692;SDS011;41590;53.366;5.212;2023-02-01T20:22:06;32.72;;;4.88;;
55692;SDS011;41590;53.366;5.212;2023-02-01T20:24:32;26.80;;;4.00;;
55692;SDS011;41590;53.366;5.212;2023-02-01T20:27:00;32.70;;;6.05;;
55692;SDS011;41590;53.366;5.212;2023-02-01T20:31:56;35.65;;;4.55;;
55692;SDS011;41590;53.366;5.212;2023-02-01T20:34:30;45.35;;;5.20;;
55692;SDS011;41590;53.366;5.212;2023-02-01T20:36:57;37.78;;;4.20;;
55692;SDS011;41590;53.366;5.212;2023-02-01T20:39:24;36.28;;;5.50;;
55692;SDS011;41590;53.366;5.212;2023-02-01T20:41:50;34.17;;;5.63;;
55692;SDS011;41590;53.366;5.212;2023-02-01T20:44:17;27.67;;;4.57;;
55692;SDS011;41590;53.366;5.212;2023-02-01T20:46:45;36.40;;;5.38;;
55692;SDS011;41590;53.366;5.212;2023-02-01T20:51:44;30.52;;;4.28;;
55692;SDS011;41590;53.366;5.212;2023-02-01T20:54:10;43.80;;;5.65;;
55692;SDS011;41590;53.366;5.212;2023-02-01T20:56:36;44.00;;;6.05;;
55692;SDS011;41590;53.366;5.212;2023-02-01T20:59:08;43.55;;;5.35;;
55692;SDS011;41590;53.366;5.212;2023-02-01T21:01:38;45.60;;;6.38;;
55692;SDS011;41590;53.366;5.212;2023-02-01T21:04:17;45.75;;;6.95;;
55692;SDS011;41590;53.366;5.212;2023-02-01T21:06:55;48.30;;;6.25;;
55692;SDS011;41590;53.366;5.212;2023-02-01T21:09:23;42.95;;;5.75;;
55692;SDS011;41590;53.366;5.212;2023-02-01T21:11:50;38.22;;;5.78;;
55692;SDS011;41590;53.366;5.212;2023-02-01T21:14:18;35.70;;;4.40;;
55692;SDS011;41590;53.366;5.212;2023-02-01T21:16:44;43.85;;;6.10;;
55692;SDS011;41590;53.366;5.212;2023-02-01T21:19:11;51.67;;;7.43;;
55692;SDS011;41590;53.366;5.212;2023-02-01T21:21:36;50.13;;;7.15;;
55692;SDS011;41590;53.366;5.212;2023-02-01T21:24:04;59.65;;;7.97;;
55692;SDS011;41590;53.366;5.212;2023-02-01T21:26:30;61.17;;;8.60;;